createdAt,value
2019-02-28T00:02:13.564Z,21.90
2019-02-28T00:04:46.678Z,21.90
2019-02-28T00:07:19.102Z,21.90
2019-02-28T00:09:51.466Z,21.90
2019-02-28T00:12:24.188Z,21.80
2019-02-28T00:14:58.613Z,21.80
2019-02-28T00:17:30.577Z,21.90
2019-02-28T00:20:03.063Z,21.80
2019-02-28T00:22:35.657Z,21.80
2019-02-28T00:25:09.963Z,21.80
2019-02-28T00:27:42.425Z,21.80
2019-02-28T00:30:18.150Z,21.80
2019-02-28T00:32:50.530Z,21.80
2019-02-28T00:35:23.018Z,21.80
2019-02-28T00:37:58.851Z,21.80
2019-02-28T00:40:31.431Z,21.70
2019-02-28T00:43:03.982Z,21.80
2019-02-28T00:45:37.316Z,21.70
2019-02-28T00:48:10.089Z,21.70
2019-02-28T00:50:42.662Z,21.70
2019-02-28T00:53:15.214Z,21.70
2019-02-28T00:55:47.944Z,21.70
2019-02-28T00:58:20.351Z,21.70
2019-02-28T01:00:52.842Z,21.70
2019-02-28T01:03:27.420Z,21.70
2019-02-28T01:05:59.328Z,21.70
2019-02-28T01:08:31.805Z,21.70
2019-02-28T01:11:04.244Z,21.70
2019-02-28T01:13:36.651Z,21.70
2019-02-28T01:16:09.029Z,21.60
2019-02-28T01:18:41.459Z,21.60
2019-02-28T01:21:13.822Z,21.60
2019-02-28T01:23:46.497Z,21.60
2019-02-28T01:26:18.980Z,21.60
2019-02-28T01:28:51.470Z,21.60
2019-02-28T01:31:24.622Z,21.60
2019-02-28T01:33:58.754Z,21.60
2019-02-28T01:36:31.576Z,21.60
2019-02-28T01:39:04.612Z,21.60
2019-02-28T01:41:38.436Z,21.60
2019-02-28T01:44:10.962Z,21.60
2019-02-28T01:46:43.430Z,21.60
2019-02-28T01:49:15.846Z,21.60
2019-02-28T01:51:48.209Z,21.50
2019-02-28T01:54:20.781Z,21.50
2019-02-28T01:56:53.525Z,21.50
2019-02-28T01:59:26.351Z,21.50
2019-02-28T02:01:58.861Z,21.50
2019-02-28T02:04:31.310Z,21.50
2019-02-28T02:07:11.205Z,21.50
2019-02-28T02:09:48.908Z,21.50
2019-02-28T02:12:23.380Z,21.50
2019-02-28T02:14:58.461Z,21.50
2019-02-28T02:17:36.224Z,21.50
2019-02-28T02:20:11.222Z,21.50
2019-02-28T02:22:45.691Z,21.50
2019-02-28T02:25:19.130Z,21.50
2019-02-28T02:27:53.419Z,22.50
2019-02-28T02:30:26.815Z,23.50
2019-02-28T02:32:59.201Z,24.30
2019-02-28T02:35:31.728Z,25.00
2019-02-28T02:38:04.878Z,25.50
2019-02-28T02:40:37.499Z,25.90
2019-02-28T02:43:10.867Z,26.40
2019-02-28T02:45:43.762Z,26.80
2019-02-28T02:48:16.311Z,27.10
2019-02-28T02:50:48.725Z,27.40
2019-02-28T02:53:21.489Z,27.70
2019-02-28T02:55:55.014Z,27.00
2019-02-28T02:58:28.891Z,26.30
2019-02-28T03:01:01.373Z,25.70
2019-02-28T03:03:33.864Z,25.30
2019-02-28T03:06:12.058Z,24.90
2019-02-28T03:08:40.167Z,24.70
2019-02-28T03:11:12.887Z,24.50
2019-02-28T03:13:45.330Z,24.40
2019-02-28T03:16:18.411Z,24.20
2019-02-28T03:18:56.957Z,24.10
2019-02-28T03:21:24.640Z,24.00
2019-02-28T03:23:57.053Z,23.90
2019-02-28T03:26:30.986Z,23.80
2019-02-28T03:29:07.541Z,23.70
2019-02-28T03:31:37.436Z,23.70
2019-02-28T03:34:13.160Z,23.60
2019-02-28T03:36:43.456Z,23.50
2019-02-28T03:39:15.712Z,23.50
2019-02-28T03:41:49.039Z,23.40
2019-02-28T03:44:22.266Z,23.40
2019-02-28T03:46:54.690Z,23.30
2019-02-28T03:49:27.522Z,23.30
2019-02-28T03:52:05.387Z,23.20
2019-02-28T03:54:35.139Z,23.20
2019-02-28T03:57:08.079Z,23.10
2019-02-28T03:59:42.120Z,23.10
2019-02-28T04:02:20.988Z,23.10
2019-02-28T04:04:50.165Z,23.00
2019-02-28T04:07:22.703Z,22.90
2019-02-28T04:09:55.446Z,22.90
2019-02-28T04:12:27.909Z,22.90
2019-02-28T04:15:00.419Z,22.80
2019-02-28T04:17:32.899Z,22.80
2019-02-28T04:20:05.878Z,22.80
2019-02-28T04:22:38.409Z,22.80
2019-02-28T04:25:12.251Z,22.80
2019-02-28T04:27:44.870Z,22.70
2019-02-28T04:30:17.524Z,22.70
2019-02-28T04:32:50.099Z,22.70
2019-02-28T04:35:25.290Z,22.70
2019-02-28T04:37:56.404Z,22.70
2019-02-28T04:40:28.768Z,22.60
2019-02-28T04:43:01.462Z,22.60
2019-02-28T04:45:33.844Z,22.60
2019-02-28T04:48:06.471Z,22.60
2019-02-28T04:50:39.121Z,22.60
2019-02-28T04:53:12.573Z,22.50
2019-02-28T04:55:45.015Z,22.50
2019-02-28T04:58:17.678Z,22.50
2019-02-28T05:00:50.814Z,22.50
2019-02-28T05:03:27.961Z,22.40
2019-02-28T05:05:59.388Z,22.40
2019-02-28T05:09:24.836Z,22.40
2019-02-28T05:12:14.927Z,22.50
2019-02-28T05:14:47.524Z,23.80
2019-02-28T05:17:22.263Z,24.70
2019-02-28T05:19:55.561Z,25.30
2019-02-28T05:22:28.658Z,25.90
2019-02-28T05:25:01.747Z,25.60
2019-02-28T05:27:35.616Z,25.00
2019-02-28T05:30:18.100Z,24.60
2019-02-28T05:32:47.663Z,24.20
2019-02-28T05:35:25.551Z,23.90
2019-02-28T05:37:54.308Z,23.70
2019-02-28T05:40:27.037Z,23.50
2019-02-28T05:42:59.406Z,23.40
2019-02-28T05:45:31.943Z,23.30
2019-02-28T05:48:04.649Z,23.20
2019-02-28T05:50:37.492Z,23.20
2019-02-28T05:53:10.095Z,23.10
2019-02-28T05:55:42.611Z,23.10
2019-02-28T05:58:17.722Z,23.00
2019-02-28T06:00:49.288Z,22.90
2019-02-28T06:03:22.124Z,22.80
2019-02-28T06:05:55.537Z,22.80
2019-02-28T06:08:27.885Z,22.70
2019-02-28T06:11:01.425Z,22.70
2019-02-28T06:13:34.091Z,22.60
2019-02-28T06:16:11.348Z,22.60
2019-02-28T06:18:40.472Z,22.50
2019-02-28T06:21:12.983Z,22.50
2019-02-28T06:23:45.342Z,22.40
2019-02-28T06:26:21.508Z,22.40
2019-02-28T06:28:53.963Z,22.40
2019-02-28T06:31:26.802Z,22.40
2019-02-28T06:33:59.427Z,22.30
2019-02-28T06:36:32.003Z,22.30
2019-02-28T06:39:05.763Z,22.30
2019-02-28T06:41:39.843Z,22.20
2019-02-28T06:44:12.421Z,22.20
2019-02-28T06:46:44.840Z,22.20
2019-02-28T06:49:17.257Z,22.10
2019-02-28T06:51:51.313Z,22.10
2019-02-28T06:54:23.571Z,22.10
2019-02-28T06:56:55.979Z,22.10
2019-02-28T06:59:28.446Z,22.00
2019-02-28T07:02:00.997Z,22.00
2019-02-28T07:04:33.841Z,22.00
2019-02-28T07:07:10.197Z,22.00
2019-02-28T07:09:42.852Z,22.00
2019-02-28T07:12:15.249Z,21.90
2019-02-28T07:14:49.345Z,21.90
2019-02-28T07:17:21.477Z,21.90
2019-02-28T07:19:53.842Z,21.90
2019-02-28T07:22:26.213Z,21.90
2019-02-28T07:24:58.681Z,21.80
2019-02-28T07:27:31.054Z,21.80
2019-02-28T07:30:03.427Z,21.80
2019-02-28T07:32:36.438Z,21.70
2019-02-28T07:35:08.991Z,21.70
2019-02-28T07:37:42.143Z,21.70
2019-02-28T07:40:21.187Z,21.70
2019-02-28T07:42:53.558Z,21.70
2019-02-28T07:45:29.686Z,21.70
2019-02-28T07:48:00.740Z,21.60
2019-02-28T07:50:33.570Z,21.60
2019-02-28T07:53:08.734Z,21.60
2019-02-28T07:55:41.167Z,21.50
2019-02-28T07:58:13.668Z,21.50
2019-02-28T08:00:48.371Z,21.50
2019-02-28T08:03:20.443Z,21.50
2019-02-28T08:06:04.466Z,21.50
2019-02-28T08:08:34.547Z,21.50
2019-02-28T08:11:07.042Z,21.50
2019-02-28T08:13:39.566Z,21.50
2019-02-28T08:16:15.742Z,21.40
2019-02-28T08:18:51.167Z,21.40
2019-02-28T08:21:22.859Z,21.40
2019-02-28T08:23:55.634Z,21.40
2019-02-28T08:26:28.032Z,21.40
2019-02-28T08:29:00.430Z,21.40
2019-02-28T08:31:33.036Z,21.90
2019-02-28T08:34:05.848Z,22.80
2019-02-28T08:36:38.592Z,23.60
2019-02-28T08:39:12.831Z,24.30
2019-02-28T08:41:45.495Z,24.50
2019-02-28T08:44:22.771Z,23.90
2019-02-28T08:46:51.652Z,23.40
2019-02-28T08:49:24.032Z,23.00
2019-02-28T08:51:56.412Z,22.70
2019-02-28T08:54:28.765Z,22.50
2019-02-28T08:57:01.118Z,22.40
2019-02-28T08:59:33.503Z,22.30
2019-02-28T09:02:06.135Z,22.20
2019-02-28T09:04:41.541Z,22.10
2019-02-28T09:07:15.911Z,22.10
2019-02-28T09:09:48.894Z,22.00
2019-02-28T09:12:21.245Z,22.00
2019-02-28T09:14:55.452Z,21.90
2019-02-28T09:17:28.131Z,21.80
2019-02-28T09:20:00.507Z,21.80
2019-02-28T09:22:33.555Z,21.70
2019-02-28T09:25:08.179Z,21.70
2019-02-28T09:27:40.884Z,21.60
2019-02-28T09:30:21.816Z,21.60
2019-02-28T09:32:54.530Z,21.60
2019-02-28T09:35:27.570Z,21.50
2019-02-28T09:38:03.273Z,21.50
2019-02-28T09:40:34.008Z,21.50
2019-02-28T09:43:06.596Z,21.50
2019-02-28T09:45:39.875Z,21.50
2019-02-28T09:48:13.216Z,21.50
2019-02-28T09:50:45.701Z,21.40
2019-02-28T09:53:18.058Z,21.40
2019-02-28T09:55:50.570Z,21.40
2019-02-28T09:58:26.125Z,21.40
2019-02-28T10:00:57.220Z,21.30
2019-02-28T10:03:30.662Z,21.50
2019-02-28T10:06:03.207Z,22.50
2019-02-28T10:08:36.824Z,23.40
2019-02-28T10:11:09.809Z,24.00
2019-02-28T10:13:44.731Z,24.60
2019-02-28T10:16:17.678Z,25.00
2019-02-28T10:18:50.127Z,24.40
2019-02-28T10:21:22.478Z,23.80
2019-02-28T10:23:57.052Z,23.30
2019-02-28T10:26:30.324Z,23.00
2019-02-28T10:29:04.569Z,22.80
2019-02-28T10:31:38.393Z,22.60
2019-02-28T10:34:11.410Z,22.50
2019-02-28T10:36:44.384Z,22.40
2019-02-28T10:39:18.621Z,22.30
2019-02-28T10:41:51.893Z,22.20
2019-02-28T10:44:30.272Z,22.10
2019-02-28T10:47:00.049Z,22.10
2019-02-28T10:49:32.540Z,22.00
2019-02-28T10:52:04.974Z,21.90
2019-02-28T10:54:37.669Z,21.90
2019-02-28T10:57:10.122Z,21.80
2019-02-28T10:59:42.530Z,21.70
2019-02-28T11:02:19.819Z,21.70
2019-02-28T11:04:50.917Z,21.70
2019-02-28T11:07:23.493Z,21.60
2019-02-28T11:09:58.631Z,21.60
2019-02-28T11:12:30.674Z,21.50
2019-02-28T11:15:03.153Z,21.50
2019-02-28T11:17:37.356Z,21.50
2019-02-28T11:20:21.841Z,21.40
2019-02-28T11:22:45.749Z,21.40
2019-02-28T11:25:19.382Z,21.40
2019-02-28T11:27:53.716Z,21.40
2019-02-28T11:30:28.308Z,21.30
2019-02-28T11:33:04.566Z,21.30
2019-02-28T11:35:35.614Z,21.30
2019-02-28T11:38:08.270Z,21.20
2019-02-28T11:40:44.607Z,21.30
2019-02-28T11:43:18.082Z,22.20
2019-02-28T11:45:50.784Z,23.10
2019-02-28T11:48:30.644Z,23.80
2019-02-28T11:51:03.308Z,24.40
2019-02-28T11:53:40.378Z,24.30
2019-02-28T11:56:11.629Z,23.80
2019-02-28T11:58:51.129Z,23.30
2019-02-28T12:01:19.772Z,22.90
2019-02-28T12:03:52.356Z,22.60
2019-02-28T12:06:25.737Z,22.40
2019-02-28T12:08:59.043Z,22.30
2019-02-28T12:11:33.501Z,22.20
2019-02-28T12:14:06.322Z,22.10
2019-02-28T12:16:38.962Z,22.00
2019-02-28T12:19:12.576Z,22.00
2019-02-28T12:21:46.476Z,21.90
2019-02-28T12:24:18.828Z,21.80
2019-02-28T12:26:52.744Z,21.70
2019-02-28T12:29:25.004Z,21.70
2019-02-28T12:31:57.327Z,21.60
2019-02-28T12:34:29.951Z,21.60
2019-02-28T12:37:03.386Z,21.50
2019-02-28T12:39:36.367Z,21.50
2019-02-28T12:42:09.512Z,21.50
2019-02-28T12:44:42.312Z,21.40
2019-02-28T12:47:14.848Z,21.40
2019-02-28T12:49:47.623Z,21.30
2019-02-28T12:52:19.953Z,21.30
2019-02-28T12:54:52.673Z,21.30
2019-02-28T12:57:25.749Z,21.30
2019-02-28T12:59:58.788Z,21.20
2019-02-28T13:02:31.488Z,21.20
2019-02-28T13:05:04.266Z,21.20
2019-02-28T13:07:37.157Z,21.10
2019-02-28T13:10:18.743Z,21.10
2019-02-28T13:12:51.483Z,21.40
2019-02-28T13:15:24.437Z,21.40
2019-02-28T13:17:56.961Z,22.40
2019-02-28T13:20:36.681Z,23.20
2019-02-28T13:23:09.164Z,24.00
2019-02-28T13:25:41.550Z,24.60
2019-02-28T13:28:17.878Z,25.00
2019-02-28T13:30:52.564Z,25.10
2019-02-28T13:33:25.169Z,24.40
2019-02-28T13:35:57.988Z,23.90
2019-02-28T13:38:30.641Z,23.40
2019-02-28T13:41:03.197Z,23.00
2019-02-28T13:43:35.519Z,22.80
2019-02-28T13:46:08.106Z,22.60
2019-02-28T13:48:40.442Z,22.50
2019-02-28T13:51:13.358Z,22.40
2019-02-28T13:53:45.798Z,22.30
2019-02-28T13:56:18.167Z,22.20
2019-02-28T13:58:53.859Z,22.20
2019-02-28T14:01:25.420Z,22.10
2019-02-28T14:03:58.248Z,22.00
2019-02-28T14:06:31.224Z,22.50
2019-02-28T14:09:04.899Z,23.40
2019-02-28T14:11:37.783Z,24.20
2019-02-28T14:14:11.254Z,24.90
2019-02-28T14:16:44.777Z,25.40
2019-02-28T14:19:20.551Z,25.80
2019-02-28T14:21:51.737Z,26.10
2019-02-28T14:24:27.444Z,26.50
2019-02-28T14:27:08.936Z,26.80
2019-02-28T14:29:43.021Z,27.00
2019-02-28T14:32:16.700Z,27.30
2019-02-28T14:34:49.075Z,27.50
2019-02-28T14:37:21.579Z,26.80
2019-02-28T14:39:54.046Z,26.10
2019-02-28T14:42:26.918Z,25.50
2019-02-28T14:45:03.871Z,25.00
2019-02-28T14:47:34.894Z,24.70
2019-02-28T14:50:10.461Z,24.40
2019-02-28T14:52:42.827Z,24.10
2019-02-28T14:55:19.449Z,23.90
2019-02-28T14:57:51.919Z,23.80
2019-02-28T15:00:35.429Z,23.70
2019-02-28T15:03:08.715Z,23.60
2019-02-28T15:05:43.551Z,24.10
2019-02-28T15:08:16.263Z,25.00
2019-02-28T15:10:49.250Z,25.70
2019-02-28T15:13:21.967Z,26.30
2019-02-28T15:15:54.688Z,25.90
2019-02-28T15:18:27.485Z,25.30
2019-02-28T15:21:00.212Z,24.80
2019-02-28T15:23:34.189Z,24.40
2019-02-28T15:26:06.898Z,24.20
2019-02-28T15:28:39.729Z,24.00
2019-02-28T15:31:13.639Z,23.80
2019-02-28T15:33:46.524Z,23.70
2019-02-28T15:36:20.912Z,23.60
2019-02-28T15:38:53.511Z,23.50
2019-02-28T15:41:25.945Z,23.40
2019-02-28T15:43:58.679Z,23.30
2019-02-28T15:46:31.719Z,23.20
2019-02-28T15:49:06.466Z,23.20
2019-02-28T15:51:38.324Z,23.10
2019-02-28T15:54:10.839Z,23.10
2019-02-28T15:56:43.130Z,23.10
2019-02-28T15:59:15.657Z,23.90
2019-02-28T16:01:47.967Z,24.80
2019-02-28T16:04:23.415Z,25.50
2019-02-28T16:06:57.961Z,26.10
2019-02-28T16:09:28.181Z,25.80
2019-02-28T16:12:00.615Z,25.20
2019-02-28T16:14:34.796Z,24.70
2019-02-28T16:17:07.430Z,24.40
2019-02-28T16:19:39.653Z,24.20
2019-02-28T16:22:14.637Z,24.00
2019-02-28T16:24:45.992Z,23.80
2019-02-28T16:27:18.400Z,23.70
2019-02-28T16:29:52.367Z,23.60
2019-02-28T16:32:25.730Z,23.50
2019-02-28T16:34:57.966Z,23.40
2019-02-28T16:37:32.278Z,23.30
2019-02-28T16:40:06.293Z,23.30
2019-02-28T16:42:39.679Z,23.20
2019-02-28T16:45:16.817Z,23.20
2019-02-28T16:47:50.443Z,23.10
2019-02-28T16:50:23.234Z,23.10
2019-02-28T16:52:56.886Z,23.10
2019-02-28T16:55:31.029Z,23.00
2019-02-28T16:58:03.594Z,22.90
2019-02-28T17:00:36.018Z,22.90
2019-02-28T17:03:08.544Z,22.90
2019-02-28T17:05:40.965Z,22.90
2019-02-28T17:08:15.593Z,22.90
2019-02-28T17:10:47.999Z,22.80
2019-02-28T17:13:39.888Z,22.80
2019-02-28T17:16:19.963Z,22.80
2019-02-28T17:18:53.607Z,22.70
2019-02-28T17:21:26.167Z,22.60
2019-02-28T17:23:58.660Z,22.60
2019-02-28T17:26:49.115Z,22.50
2019-02-28T17:29:25.217Z,22.50
2019-02-28T17:31:56.837Z,22.50
2019-02-28T17:34:29.073Z,22.40
2019-02-28T17:37:01.629Z,22.40
2019-02-28T17:39:33.821Z,22.40
2019-02-28T17:42:08.821Z,22.40
2019-02-28T17:44:52.032Z,22.30
2019-02-28T17:47:29.699Z,22.30
2019-02-28T17:50:19.669Z,22.30
2019-02-28T17:53:00.595Z,22.30
2019-02-28T17:55:56.741Z,22.20
2019-02-28T17:59:04.237Z,22.20
2019-02-28T18:01:37.122Z,22.20
2019-02-28T18:04:28.205Z,22.20
2019-02-28T18:07:14.787Z,22.20
2019-02-28T18:09:49.517Z,22.10
2019-02-28T18:12:33.146Z,22.10
2019-02-28T18:15:11.024Z,22.10
2019-02-28T18:18:05.464Z,22.10
2019-02-28T18:20:47.291Z,22.00
2019-02-28T18:23:51.859Z,22.00
2019-02-28T18:26:55.170Z,22.00
2019-02-28T18:30:01.464Z,22.00
2019-02-28T18:32:35.103Z,22.00
2019-02-28T18:35:09.893Z,21.90
2019-02-28T18:37:42.109Z,21.90
2019-02-28T18:40:14.652Z,21.90
2019-02-28T18:42:46.852Z,21.90
2019-02-28T18:45:22.303Z,21.90
2019-02-28T18:47:53.156Z,21.90
2019-02-28T18:50:25.642Z,21.90
2019-02-28T18:52:58.218Z,21.90
2019-02-28T18:55:34.837Z,21.80
2019-02-28T18:58:04.727Z,21.80
2019-02-28T19:00:36.908Z,21.80
2019-02-28T19:03:09.316Z,21.80
2019-02-28T19:05:41.661Z,21.70
2019-02-28T19:08:14.093Z,21.70
2019-02-28T19:10:46.605Z,21.70
2019-02-28T19:13:19.172Z,21.70
2019-02-28T19:15:51.729Z,21.70
2019-02-28T19:18:24.444Z,21.70
2019-02-28T19:20:57.185Z,21.70
2019-02-28T19:23:29.723Z,21.80
2019-02-28T19:26:02.256Z,21.80
2019-02-28T19:28:34.854Z,21.90
2019-02-28T19:31:07.409Z,21.90
2019-02-28T19:33:40.838Z,22.00
2019-02-28T19:36:13.024Z,21.90
2019-02-28T19:38:45.825Z,21.90
2019-02-28T19:41:18.204Z,21.90
2019-02-28T19:43:50.407Z,21.90
2019-02-28T19:46:22.596Z,21.90
2019-02-28T19:48:54.986Z,21.90
2019-02-28T19:51:27.344Z,22.00
2019-02-28T19:54:00.120Z,22.00
2019-02-28T19:56:32.773Z,22.10
2019-02-28T19:59:05.413Z,22.10
2019-02-28T20:01:37.762Z,22.10
2019-02-28T20:04:10.312Z,22.20
2019-02-28T20:06:42.598Z,22.20
2019-02-28T20:09:15.006Z,22.20
2019-02-28T20:11:47.367Z,22.20
2019-02-28T20:14:19.784Z,22.20
2019-02-28T20:16:52.059Z,22.20
2019-02-28T20:19:24.420Z,22.30
2019-02-28T20:21:57.043Z,22.30
2019-02-28T20:24:29.267Z,22.40
2019-02-28T20:27:01.836Z,22.50
2019-02-28T20:29:34.456Z,22.50
2019-02-28T20:32:06.832Z,22.50
2019-02-28T20:34:39.515Z,22.50
2019-02-28T20:37:12.078Z,22.50
2019-02-28T20:39:44.874Z,22.50
2019-02-28T20:42:19.569Z,22.50
2019-02-28T20:44:52.117Z,22.50
2019-02-28T20:47:24.604Z,22.50
2019-02-28T20:49:57.079Z,22.60
2019-02-28T20:52:29.437Z,22.60
2019-02-28T20:55:01.807Z,22.70
2019-02-28T20:57:36.125Z,22.80
2019-02-28T21:00:14.398Z,22.80
2019-02-28T21:02:47.082Z,22.90
2019-02-28T21:05:19.470Z,22.90
2019-02-28T21:07:52.041Z,23.00
2019-02-28T21:10:24.517Z,23.00
2019-02-28T21:12:56.774Z,23.10
2019-02-28T21:15:29.569Z,23.00
2019-02-28T21:18:02.534Z,23.00
2019-02-28T21:20:36.366Z,23.00
2019-02-28T21:23:09.027Z,22.90
2019-02-28T21:25:41.573Z,23.00
2019-02-28T21:28:13.736Z,23.00
2019-02-28T21:30:46.040Z,23.00
2019-02-28T21:33:18.335Z,23.00
2019-02-28T21:35:50.755Z,23.00
2019-02-28T21:38:23.172Z,23.10
2019-02-28T21:40:55.951Z,23.10
2019-02-28T21:43:28.275Z,23.10
2019-02-28T21:46:00.586Z,23.10
2019-02-28T21:48:32.875Z,23.20
2019-02-28T21:51:05.844Z,23.20
2019-02-28T21:53:39.081Z,23.30
2019-02-28T21:56:14.181Z,23.30
2019-02-28T21:58:51.723Z,23.30
2019-02-28T22:01:24.035Z,23.40
2019-02-28T22:03:57.450Z,23.40
2019-02-28T22:09:23.408Z,23.40
2019-02-28T22:11:56.638Z,23.50
2019-02-28T22:14:29.673Z,23.50
2019-02-28T22:17:02.724Z,23.50
2019-02-28T22:19:36.098Z,23.50
2019-02-28T22:22:09.448Z,23.50
2019-02-28T22:24:42.198Z,23.50
2019-02-28T22:27:14.954Z,23.50
2019-02-28T22:29:47.876Z,23.50
2019-02-28T22:32:24.722Z,23.50
2019-02-28T22:34:57.274Z,23.50
2019-02-28T22:37:29.819Z,23.50
2019-02-28T22:40:02.227Z,23.50
2019-02-28T22:42:35.886Z,23.50
2019-02-28T22:45:09.059Z,23.50
2019-02-28T22:47:41.345Z,23.50
2019-02-28T22:50:13.715Z,23.50
2019-02-28T22:52:46.197Z,23.50
2019-02-28T22:55:18.853Z,23.50
2019-02-28T22:57:51.637Z,23.50
2019-02-28T23:00:39.622Z,23.60
2019-02-28T23:03:13.471Z,23.60
2019-02-28T23:05:48.027Z,23.60
2019-02-28T23:08:20.217Z,23.60
2019-02-28T23:10:52.980Z,23.60
2019-02-28T23:13:26.021Z,23.60
2019-02-28T23:16:02.501Z,23.60
2019-02-28T23:18:34.768Z,23.60
2019-02-28T23:21:07.819Z,23.50
2019-02-28T23:23:40.553Z,23.50
2019-02-28T23:26:14.487Z,23.50
2019-02-28T23:28:52.476Z,23.50
2019-02-28T23:31:52.845Z,23.40
2019-02-28T23:34:30.293Z,23.40
2019-02-28T23:37:02.783Z,23.40
2019-02-28T23:39:35.101Z,23.30
2019-02-28T23:42:07.540Z,23.30
2019-02-28T23:44:39.843Z,23.30
2019-02-28T23:47:12.016Z,23.30
2019-02-28T23:49:44.227Z,23.20
2019-02-28T23:52:16.698Z,23.20
2019-02-28T23:54:49.646Z,23.20
2019-02-28T23:57:22.052Z,23.10
2019-02-28T23:59:54.869Z,23.10
